createdAt,value
2019-03-04T00:00:51.986Z,4.03
2019-03-04T00:03:19.466Z,2.70
2019-03-04T00:05:46.643Z,2.00
2019-03-04T00:08:13.837Z,4.37
2019-03-04T00:10:41.085Z,2.00
2019-03-04T00:13:08.261Z,4.77
2019-03-04T00:15:35.586Z,2.87
2019-03-04T00:18:02.826Z,2.13
2019-03-04T00:20:30.049Z,3.53
2019-03-04T00:22:57.290Z,3.23
2019-03-04T00:25:24.639Z,2.10
2019-03-04T00:27:51.789Z,3.30
2019-03-04T00:30:18.979Z,3.03
2019-03-04T00:32:46.218Z,2.90
2019-03-04T00:35:13.396Z,1.70
2019-03-04T00:37:40.656Z,4.43
2019-03-04T00:40:08.075Z,4.20
2019-03-04T00:42:35.330Z,2.17
2019-03-04T00:45:02.586Z,2.10
2019-03-04T00:47:29.791Z,3.63
2019-03-04T00:49:57.160Z,3.27
2019-03-04T00:52:24.382Z,3.93
2019-03-04T00:54:51.568Z,2.87
2019-03-04T00:57:18.807Z,3.83
2019-03-04T00:59:46.016Z,4.37
2019-03-04T01:02:13.212Z,2.93
2019-03-04T01:04:40.462Z,3.07
2019-03-04T01:07:08.175Z,4.10
2019-03-04T01:09:35.358Z,6.20
2019-03-04T01:12:03.425Z,2.60
2019-03-04T01:14:30.629Z,2.83
2019-03-04T01:16:57.861Z,1.60
2019-03-04T01:19:25.086Z,4.80
2019-03-04T01:21:52.301Z,2.57
2019-03-04T01:24:19.625Z,2.70
2019-03-04T01:26:46.820Z,3.07
2019-03-04T01:29:14.060Z,3.70
2019-03-04T01:31:43.534Z,3.00
2019-03-04T01:34:10.419Z,3.23
2019-03-04T01:36:37.630Z,2.80
2019-03-04T01:39:05.513Z,3.57
2019-03-04T01:41:32.860Z,2.30
2019-03-04T01:44:00.049Z,1.40
2019-03-04T01:46:27.247Z,2.07
2019-03-04T01:48:54.484Z,4.50
2019-03-04T01:51:21.823Z,2.47
2019-03-04T01:53:48.996Z,2.77
2019-03-04T01:56:16.161Z,2.73
2019-03-04T01:58:43.388Z,1.67
2019-03-04T02:01:10.607Z,3.00
2019-03-04T02:03:37.932Z,3.40
2019-03-04T02:06:05.103Z,2.20
2019-03-04T02:08:32.294Z,2.50
2019-03-04T02:10:59.515Z,2.63
2019-03-04T02:13:26.923Z,3.20
2019-03-04T02:15:54.120Z,1.93
2019-03-04T02:18:21.280Z,2.43
2019-03-04T02:20:48.548Z,4.47
2019-03-04T02:23:15.723Z,1.40
2019-03-04T02:26:05.687Z,3.23
2019-03-04T02:28:32.882Z,3.10
2019-03-04T02:31:00.087Z,3.53
2019-03-04T02:33:27.297Z,1.77
2019-03-04T02:35:54.502Z,2.07
2019-03-04T02:38:21.705Z,2.63
2019-03-04T02:40:48.927Z,4.00
2019-03-04T02:43:16.111Z,3.00
2019-03-04T02:45:43.300Z,2.70
2019-03-04T02:48:10.546Z,3.60
2019-03-04T02:50:37.748Z,3.10
2019-03-04T02:53:04.943Z,1.73
2019-03-04T02:55:32.138Z,3.53
2019-03-04T02:57:59.314Z,3.27
2019-03-04T03:00:26.542Z,2.60
2019-03-04T03:02:53.716Z,1.70
2019-03-04T03:05:20.902Z,2.00
2019-03-04T03:07:48.091Z,2.20
2019-03-04T03:10:15.307Z,6.33
2019-03-04T03:12:42.521Z,2.57
2019-03-04T03:15:09.957Z,1.50
2019-03-04T03:17:37.140Z,2.70
2019-03-04T03:20:04.456Z,3.47
2019-03-04T03:22:31.735Z,2.90
2019-03-04T03:24:58.940Z,2.00
2019-03-04T03:27:26.134Z,2.10
2019-03-04T03:29:53.383Z,1.83
2019-03-04T03:32:20.580Z,1.93
2019-03-04T03:34:47.770Z,2.43
2019-03-04T03:37:15.006Z,2.87
2019-03-04T03:39:42.178Z,1.50
2019-03-04T03:42:09.385Z,1.70
2019-03-04T03:44:36.700Z,2.43
2019-03-04T03:47:03.874Z,2.70
2019-03-04T03:49:31.055Z,2.43
2019-03-04T03:51:58.284Z,1.80
2019-03-04T03:54:25.678Z,1.80
2019-03-04T03:56:52.878Z,1.63
2019-03-04T03:59:20.127Z,1.73
2019-03-04T04:01:47.321Z,3.67
2019-03-04T04:04:14.555Z,3.03
2019-03-04T04:06:41.749Z,3.00
2019-03-04T04:09:08.919Z,1.70
2019-03-04T04:11:36.169Z,2.50
2019-03-04T04:14:03.616Z,2.20
2019-03-04T04:16:30.849Z,3.60
2019-03-04T04:18:58.084Z,3.57
2019-03-04T04:21:25.290Z,1.40
2019-03-04T04:23:52.514Z,4.47
2019-03-04T04:26:22.503Z,2.20
2019-03-04T04:29:08.542Z,2.00
2019-03-04T04:31:35.768Z,1.50
2019-03-04T04:34:02.996Z,1.70
2019-03-04T04:36:30.202Z,2.77
2019-03-04T04:38:57.429Z,1.77
2019-03-04T04:41:24.636Z,3.73
2019-03-04T04:43:51.877Z,2.43
2019-03-04T04:46:42.226Z,1.80
2019-03-04T04:49:09.446Z,1.87
2019-03-04T04:51:36.665Z,2.20
2019-03-04T04:54:03.877Z,1.80
2019-03-04T04:56:31.133Z,1.30
2019-03-04T04:58:58.323Z,2.90
2019-03-04T05:01:25.591Z,2.63
2019-03-04T05:03:52.818Z,2.13
2019-03-04T05:06:20.012Z,2.20
2019-03-04T05:08:47.231Z,2.23
2019-03-04T05:11:14.464Z,2.53
2019-03-04T05:13:41.670Z,1.60
2019-03-04T05:16:08.868Z,1.87
2019-03-04T05:18:36.076Z,2.23
2019-03-04T05:21:03.315Z,1.47
2019-03-04T05:23:30.531Z,1.57
2019-03-04T05:25:57.717Z,1.97
2019-03-04T05:28:24.936Z,2.07
2019-03-04T05:30:52.271Z,1.70
2019-03-04T05:33:19.466Z,1.83
2019-03-04T05:35:46.650Z,1.60
2019-03-04T05:38:14.016Z,1.87
2019-03-04T05:40:41.236Z,1.57
2019-03-04T05:43:08.444Z,1.57
2019-03-04T05:45:35.731Z,2.03
2019-03-04T05:48:02.919Z,1.83
2019-03-04T05:50:30.111Z,1.53
2019-03-04T05:52:57.370Z,1.50
2019-03-04T05:55:24.637Z,2.03
2019-03-04T05:57:51.811Z,1.67
2019-03-04T06:00:19.928Z,1.50
2019-03-04T06:02:47.227Z,1.33
2019-03-04T06:05:14.691Z,1.40
2019-03-04T06:07:48.018Z,1.53
2019-03-04T06:10:15.236Z,1.30
2019-03-04T06:12:42.494Z,1.33
2019-03-04T06:15:12.334Z,1.93
2019-03-04T06:17:39.522Z,1.90
2019-03-04T06:20:08.065Z,1.30
2019-03-04T06:22:35.428Z,2.23
2019-03-04T06:25:02.652Z,1.90
2019-03-04T06:27:29.840Z,2.70
2019-03-04T06:29:57.178Z,1.63
2019-03-04T06:32:24.352Z,1.70
2019-03-04T06:34:51.522Z,1.30
2019-03-04T06:37:18.713Z,1.70
2019-03-04T06:39:45.883Z,1.53
2019-03-04T06:42:13.118Z,1.80
2019-03-04T06:44:40.325Z,1.53
2019-03-04T06:47:07.518Z,1.30
2019-03-04T06:49:34.715Z,1.30
2019-03-04T06:52:02.181Z,1.30
2019-03-04T06:54:46.553Z,2.43
2019-03-04T06:57:28.191Z,1.50
2019-03-04T07:00:45.819Z,1.90
2019-03-04T07:03:28.051Z,2.00
2019-03-04T07:05:55.274Z,1.50
2019-03-04T07:09:17.068Z,3.00
2019-03-04T07:11:45.336Z,2.10
2019-03-04T07:14:12.576Z,1.87
2019-03-04T07:16:39.777Z,1.60
2019-03-04T07:19:11.713Z,1.17
2019-03-04T07:21:38.936Z,1.10
2019-03-04T07:24:06.230Z,1.30
2019-03-04T07:26:33.488Z,2.40
2019-03-04T07:29:00.694Z,1.40
2019-03-04T07:31:27.865Z,1.90
2019-03-04T07:33:55.157Z,1.50
2019-03-04T07:36:22.396Z,1.20
2019-03-04T07:38:57.504Z,1.60
2019-03-04T07:41:26.209Z,2.43
2019-03-04T07:43:53.459Z,1.77
2019-03-04T07:46:20.631Z,1.20
2019-03-04T07:48:47.809Z,1.63
2019-03-04T07:51:15.572Z,1.47
2019-03-04T07:53:46.258Z,2.83
2019-03-04T07:56:11.850Z,1.27
2019-03-04T07:58:39.055Z,1.63
2019-03-04T08:01:06.239Z,1.70
2019-03-04T08:03:33.467Z,3.07
2019-03-04T08:06:00.752Z,1.83
2019-03-04T08:08:27.940Z,1.23
2019-03-04T08:11:52.198Z,1.97
2019-03-04T08:14:19.383Z,1.57
2019-03-04T08:16:46.570Z,1.90
2019-03-04T08:19:13.812Z,2.00
2019-03-04T08:21:41.031Z,1.67
2019-03-04T08:24:08.262Z,1.57
2019-03-04T08:26:35.492Z,1.37
2019-03-04T08:29:02.648Z,1.90
2019-03-04T08:31:29.884Z,1.43
2019-03-04T08:33:57.062Z,2.57
2019-03-04T08:36:24.239Z,1.40
2019-03-04T08:38:51.462Z,1.57
2019-03-04T08:41:18.627Z,1.73
2019-03-04T08:43:45.871Z,2.20
2019-03-04T08:46:13.096Z,2.00
2019-03-04T08:48:40.297Z,1.80
2019-03-04T08:51:07.510Z,1.70
2019-03-04T08:53:34.689Z,1.40
2019-03-04T08:56:01.927Z,1.53
2019-03-04T08:58:29.136Z,1.70
2019-03-04T09:00:56.334Z,1.33
2019-03-04T09:03:23.535Z,1.20
2019-03-04T09:05:50.798Z,1.93
2019-03-04T09:08:18.025Z,1.90
2019-03-04T09:10:45.200Z,1.43
2019-03-04T09:13:12.422Z,1.67
2019-03-04T09:15:39.602Z,1.10
2019-03-04T09:18:06.820Z,1.30
2019-03-04T09:20:33.996Z,1.20
2019-03-04T09:23:01.227Z,1.10
2019-03-04T09:25:36.538Z,3.33
2019-03-04T09:28:03.893Z,1.83
2019-03-04T09:30:31.104Z,2.20
2019-03-04T09:32:58.300Z,1.30
2019-03-04T09:35:25.500Z,2.17
2019-03-04T09:37:52.663Z,1.93
2019-03-04T09:40:19.886Z,2.77
2019-03-04T09:42:47.116Z,1.10
2019-03-04T09:45:14.564Z,1.70
2019-03-04T09:47:41.770Z,2.20
2019-03-04T09:50:11.546Z,1.53
2019-03-04T09:52:38.735Z,2.03
2019-03-04T09:55:06.877Z,1.20
2019-03-04T09:57:34.073Z,2.40
2019-03-04T10:00:01.253Z,2.63
2019-03-04T10:02:33.238Z,1.93
2019-03-04T10:05:31.913Z,1.97
2019-03-04T10:08:32.860Z,1.30
2019-03-04T10:11:23.503Z,2.40
2019-03-04T10:14:31.856Z,1.10
2019-03-04T10:17:36.197Z,1.37
2019-03-04T10:20:37.427Z,7.43
2019-03-04T10:23:29.738Z,1.70
2019-03-04T10:26:34.826Z,1.37
2019-03-04T10:29:36.090Z,1.30
2019-03-04T10:32:20.701Z,2.20
2019-03-04T10:35:19.541Z,1.60
2019-03-04T10:38:27.943Z,2.07
2019-03-04T10:41:23.050Z,3.50
2019-03-04T10:44:49.919Z,1.60
2019-03-04T10:47:17.121Z,3.10
2019-03-04T10:49:44.334Z,2.07
2019-03-04T10:52:11.530Z,2.77
2019-03-04T10:54:38.717Z,2.33
2019-03-04T10:57:05.950Z,3.10
2019-03-04T10:59:33.129Z,2.37
2019-03-04T11:02:00.336Z,1.73
2019-03-04T11:04:27.536Z,1.83
2019-03-04T11:06:55.026Z,1.70
2019-03-04T11:09:22.432Z,1.63
2019-03-04T11:11:49.625Z,10.53
2019-03-04T11:14:16.931Z,1.87
2019-03-04T11:16:44.110Z,1.20
2019-03-04T11:19:11.295Z,2.53
2019-03-04T11:21:38.511Z,2.07
2019-03-04T11:24:06.011Z,4.93
2019-03-04T11:26:33.252Z,1.47
2019-03-04T11:29:00.476Z,1.50
2019-03-04T11:31:27.697Z,1.97
2019-03-04T11:33:54.922Z,1.80
2019-03-04T11:36:22.149Z,1.47
2019-03-04T11:38:55.859Z,1.73
2019-03-04T11:41:23.116Z,1.97
2019-03-04T11:43:50.332Z,3.13
2019-03-04T11:46:19.584Z,2.07
2019-03-04T11:48:46.770Z,2.13
2019-03-04T11:51:14.045Z,1.60
2019-03-04T11:53:41.225Z,3.10
2019-03-04T11:56:08.413Z,2.83
2019-03-04T11:58:35.620Z,1.47
2019-03-04T12:01:09.864Z,2.50
2019-03-04T12:03:37.191Z,1.10
2019-03-04T12:06:04.372Z,2.20
2019-03-04T12:08:31.641Z,1.57
2019-03-04T12:10:58.846Z,1.73
2019-03-04T12:13:26.115Z,2.90
2019-03-04T12:15:53.251Z,1.10
2019-03-04T12:18:20.423Z,3.53
2019-03-04T12:20:47.692Z,2.37
2019-03-04T12:23:14.895Z,1.80
2019-03-04T12:25:42.145Z,1.20
2019-03-04T12:28:09.469Z,1.43
2019-03-04T12:30:36.697Z,2.03
2019-03-04T12:33:05.019Z,1.50
2019-03-04T12:35:32.355Z,2.03
2019-03-04T12:37:59.568Z,1.33
2019-03-04T12:40:26.755Z,3.00
2019-03-04T12:42:53.992Z,2.80
2019-03-04T12:45:21.185Z,3.47
2019-03-04T12:47:48.429Z,1.30
2019-03-04T12:50:17.855Z,4.00
2019-03-04T12:52:45.201Z,2.50
2019-03-04T12:55:12.399Z,1.50
2019-03-04T12:57:39.591Z,2.93
2019-03-04T13:00:09.667Z,1.23
2019-03-04T13:02:36.919Z,2.10
2019-03-04T13:05:04.191Z,1.50
2019-03-04T13:07:31.425Z,2.10
2019-03-04T13:09:58.653Z,1.87
2019-03-04T13:12:25.857Z,1.57
2019-03-04T13:14:53.057Z,1.33
2019-03-04T13:17:20.290Z,1.30
2019-03-04T13:19:47.501Z,1.53
2019-03-04T13:22:14.679Z,2.23
2019-03-04T13:24:41.905Z,1.47
2019-03-04T13:27:09.121Z,1.30
2019-03-04T13:29:36.309Z,1.43
2019-03-04T13:32:03.557Z,1.10
2019-03-04T13:34:30.710Z,1.97
2019-03-04T13:36:57.931Z,2.13
2019-03-04T13:39:25.157Z,1.20
2019-03-04T13:41:52.400Z,1.70
2019-03-04T13:44:19.644Z,1.70
2019-03-04T13:46:46.886Z,2.30
2019-03-04T13:49:14.118Z,3.40
2019-03-04T13:51:41.267Z,1.37
2019-03-04T13:54:08.490Z,2.47
2019-03-04T13:56:35.714Z,1.63
2019-03-04T13:59:02.894Z,1.40
2019-03-04T14:01:30.081Z,1.27
2019-03-04T14:03:57.423Z,2.37
2019-03-04T14:06:24.609Z,2.07
2019-03-04T14:08:53.579Z,1.40
2019-03-04T14:11:20.824Z,1.50
2019-03-04T14:13:48.019Z,1.50
2019-03-04T14:16:16.118Z,1.57
2019-03-04T14:18:43.276Z,1.97
2019-03-04T14:21:10.567Z,2.70
2019-03-04T14:23:37.732Z,1.30
2019-03-04T14:26:04.955Z,1.30
2019-03-04T14:28:32.147Z,1.40
2019-03-04T14:30:59.338Z,3.43
2019-03-04T14:33:26.538Z,1.50
2019-03-04T14:35:53.696Z,1.83
2019-03-04T14:38:20.936Z,1.53
2019-03-04T14:40:48.104Z,2.83
2019-03-04T14:43:15.311Z,2.30
2019-03-04T14:45:42.503Z,1.77
2019-03-04T14:48:09.695Z,1.27
2019-03-04T14:50:36.906Z,2.33
2019-03-04T14:53:04.083Z,1.27
2019-03-04T14:55:31.311Z,1.50
2019-03-04T14:57:58.496Z,1.80
2019-03-04T15:00:29.632Z,3.13
2019-03-04T15:02:56.858Z,2.73
2019-03-04T15:05:24.040Z,2.93
2019-03-04T15:07:51.277Z,3.23
2019-03-04T15:10:18.469Z,3.13
2019-03-04T15:12:45.706Z,4.87
2019-03-04T15:15:13.875Z,2.43
2019-03-04T15:17:41.182Z,2.50
2019-03-04T15:20:09.901Z,2.50
2019-03-04T15:22:37.079Z,2.30
2019-03-04T15:25:05.928Z,3.47
2019-03-04T15:27:33.121Z,4.33
2019-03-04T15:30:00.817Z,2.60
2019-03-04T15:32:27.994Z,2.30
2019-03-04T15:34:55.214Z,3.83
2019-03-04T15:37:22.432Z,2.37
2019-03-04T15:39:49.688Z,2.90
2019-03-04T15:42:16.912Z,2.03
2019-03-04T15:44:44.140Z,2.03
2019-03-04T15:47:11.343Z,2.20
2019-03-04T15:49:38.581Z,2.00
2019-03-04T15:52:06.900Z,2.50
2019-03-04T15:54:34.292Z,5.00
2019-03-04T15:57:02.863Z,3.40
2019-03-04T15:59:30.136Z,2.40
2019-03-04T16:02:03.230Z,1.27
2019-03-04T16:04:30.556Z,3.17
2019-03-04T16:06:57.777Z,2.90
2019-03-04T16:09:25.003Z,3.40
2019-03-04T16:11:52.198Z,2.67
2019-03-04T16:14:19.373Z,3.83
2019-03-04T16:16:46.623Z,3.50
2019-03-04T16:19:13.834Z,3.10
2019-03-04T16:21:41.059Z,4.97
2019-03-04T16:24:08.242Z,3.47
2019-03-04T16:26:35.475Z,4.90
2019-03-04T16:29:02.702Z,4.40
2019-03-04T16:31:29.920Z,5.33
2019-03-04T16:33:57.160Z,3.60
2019-03-04T16:36:24.394Z,3.70
2019-03-04T16:38:51.622Z,3.80
2019-03-04T16:41:18.938Z,5.63
2019-03-04T16:43:46.119Z,8.33
2019-03-04T16:46:13.295Z,4.53
2019-03-04T16:48:40.517Z,5.87
2019-03-04T16:51:07.663Z,4.80
2019-03-04T16:53:34.906Z,6.10
2019-03-04T16:56:02.127Z,5.27
2019-03-04T16:58:29.342Z,6.17
2019-03-04T17:00:56.892Z,5.20
2019-03-04T17:03:24.091Z,3.83
2019-03-04T17:05:51.274Z,5.90
2019-03-04T17:08:18.479Z,4.20
2019-03-04T17:10:45.786Z,9.97
2019-03-04T17:13:12.975Z,4.63
2019-03-04T17:15:40.279Z,4.17
2019-03-04T17:18:07.504Z,6.13
2019-03-04T17:20:34.736Z,5.53
2019-03-04T17:23:01.919Z,5.73
2019-03-04T17:25:29.142Z,6.30
2019-03-04T17:27:56.337Z,3.73
2019-03-04T17:30:23.560Z,3.93
2019-03-04T17:32:50.790Z,9.47
2019-03-04T17:35:18.024Z,7.70
2019-03-04T17:37:45.239Z,7.07
2019-03-04T17:40:12.732Z,7.97
2019-03-04T17:42:40.248Z,5.70
2019-03-04T17:45:09.434Z,6.23
2019-03-04T17:47:36.616Z,17.90
2019-03-04T17:50:04.899Z,10.37
2019-03-04T17:52:32.135Z,7.30
2019-03-04T17:54:59.292Z,8.20
2019-03-04T17:57:26.497Z,8.20
2019-03-04T17:59:53.700Z,6.80
2019-03-04T18:02:20.917Z,7.77
2019-03-04T18:04:48.195Z,11.50
2019-03-04T18:07:15.406Z,9.60
2019-03-04T18:09:42.635Z,9.13
2019-03-04T18:12:09.807Z,6.37
2019-03-04T18:14:37.024Z,9.50
2019-03-04T18:17:04.179Z,7.97
2019-03-04T18:19:31.403Z,18.20
2019-03-04T18:21:59.055Z,10.30
2019-03-04T18:24:26.207Z,9.50
2019-03-04T18:27:03.331Z,10.73
2019-03-04T18:29:49.689Z,9.90
2019-03-04T18:32:45.785Z,7.87
2019-03-04T18:35:49.746Z,8.93
2019-03-04T18:38:42.841Z,8.10
2019-03-04T18:41:51.410Z,11.80
2019-03-04T18:44:44.471Z,5.53
2019-03-04T18:47:43.303Z,7.10
2019-03-04T18:50:10.539Z,14.17
2019-03-04T18:52:37.731Z,10.40
2019-03-04T18:55:05.244Z,6.00
2019-03-04T18:57:32.463Z,10.97
2019-03-04T18:59:59.697Z,9.93
2019-03-04T19:02:26.895Z,10.20
2019-03-04T19:04:54.079Z,15.37
2019-03-04T19:07:21.263Z,7.60
2019-03-04T19:09:48.466Z,7.03
2019-03-04T19:12:15.666Z,6.70
2019-03-04T19:14:42.889Z,11.70
2019-03-04T19:17:10.224Z,13.57
2019-03-04T19:19:38.185Z,8.83
2019-03-04T19:22:05.408Z,11.87
2019-03-04T19:24:32.614Z,13.37
2019-03-04T19:27:00.009Z,14.63
2019-03-04T19:29:27.222Z,13.10
2019-03-04T19:31:54.416Z,9.50
2019-03-04T19:34:21.647Z,8.10
2019-03-04T19:36:48.842Z,10.43
2019-03-04T19:39:16.089Z,10.33
2019-03-04T19:41:43.279Z,10.43
2019-03-04T19:44:10.578Z,14.13
2019-03-04T19:46:37.788Z,14.23
2019-03-04T19:49:04.995Z,10.67
2019-03-04T19:51:34.657Z,17.00
2019-03-04T19:54:01.986Z,27.07
2019-03-04T19:56:29.155Z,10.87
2019-03-04T19:58:56.375Z,9.60
2019-03-04T20:01:23.789Z,12.57
2019-03-04T20:03:51.325Z,9.40
2019-03-04T20:06:18.730Z,10.30
2019-03-04T20:08:46.032Z,17.53
2019-03-04T20:11:13.322Z,12.73
2019-03-04T20:13:40.535Z,83.17
2019-03-04T20:16:08.641Z,26.13
2019-03-04T20:18:35.828Z,34.50
2019-03-04T20:21:03.262Z,29.60
2019-03-04T20:23:30.531Z,39.60
2019-03-04T20:26:09.754Z,15.73
2019-03-04T20:28:37.048Z,49.40
2019-03-04T20:31:04.258Z,26.17
2019-03-04T20:33:31.468Z,36.37
2019-03-04T20:35:58.734Z,29.60
2019-03-04T20:38:30.164Z,22.63
2019-03-04T20:40:57.335Z,21.60
2019-03-04T20:43:24.692Z,50.43
2019-03-04T20:45:52.049Z,29.60
2019-03-04T20:48:19.272Z,46.50
2019-03-04T20:50:46.682Z,20.33
2019-03-04T20:53:13.920Z,12.70
2019-03-04T20:55:41.101Z,12.77
2019-03-04T20:58:08.354Z,24.00
2019-03-04T21:00:35.677Z,28.17
2019-03-04T21:03:04.074Z,11.43
2019-03-04T21:05:31.380Z,15.80
2019-03-04T21:08:03.035Z,24.33
2019-03-04T21:10:31.218Z,26.10
2019-03-04T21:13:01.846Z,31.40
2019-03-04T21:15:33.333Z,16.13
2019-03-04T21:18:00.853Z,15.77
2019-03-04T21:20:28.453Z,13.00
2019-03-04T21:22:56.073Z,11.27
2019-03-04T21:25:44.255Z,9.27
2019-03-04T21:28:21.283Z,17.40
2019-03-04T21:31:09.994Z,9.90
2019-03-04T21:34:11.723Z,18.10
2019-03-04T21:36:49.959Z,17.20
2019-03-04T21:39:17.372Z,7.60
2019-03-04T21:42:06.526Z,12.10
2019-03-04T21:44:59.936Z,11.60
2019-03-04T21:47:31.196Z,5.87
2019-03-04T21:50:01.708Z,10.90
2019-03-04T21:52:50.867Z,10.67
2019-03-04T21:55:26.389Z,14.83
2019-03-04T21:57:55.596Z,13.80
2019-03-04T22:00:46.172Z,7.20
2019-03-04T22:03:25.578Z,6.60
2019-03-04T22:05:53.359Z,7.90
2019-03-04T22:08:20.558Z,14.10
2019-03-04T22:10:47.979Z,5.57
2019-03-04T22:13:15.462Z,10.53
2019-03-04T22:15:42.784Z,7.90
2019-03-04T22:18:10.005Z,8.00
2019-03-04T22:20:37.359Z,12.43
2019-03-04T22:23:04.678Z,8.10
2019-03-04T22:25:32.096Z,15.97
2019-03-04T22:27:59.473Z,6.53
2019-03-04T22:30:26.818Z,24.47
2019-03-04T22:32:54.068Z,31.57
2019-03-04T22:35:21.317Z,27.13
2019-03-04T22:37:48.606Z,34.77
2019-03-04T22:40:17.034Z,19.67
2019-03-04T22:42:44.556Z,11.33
2019-03-04T22:45:14.020Z,18.20
2019-03-04T22:47:41.306Z,13.43
2019-03-04T22:50:11.101Z,20.37
2019-03-04T22:52:38.549Z,31.40
2019-03-04T22:55:08.810Z,23.50
2019-03-04T22:57:36.022Z,14.30
2019-03-04T23:00:04.275Z,21.37
2019-03-04T23:02:31.535Z,9.23
2019-03-04T23:05:07.930Z,12.77
2019-03-04T23:07:41.226Z,9.70
2019-03-04T23:10:41.036Z,9.40
2019-03-04T23:13:28.575Z,8.67
2019-03-04T23:15:57.268Z,18.30
2019-03-04T23:18:24.531Z,6.17
2019-03-04T23:20:51.765Z,10.40
2019-03-04T23:23:18.979Z,7.97
2019-03-04T23:25:46.174Z,10.47
2019-03-04T23:28:13.452Z,15.03
2019-03-04T23:30:40.622Z,8.87
2019-03-04T23:33:07.835Z,6.93
2019-03-04T23:35:35.208Z,8.73
2019-03-04T23:38:02.428Z,11.23
2019-03-04T23:40:29.617Z,8.80
2019-03-04T23:42:56.846Z,8.50
2019-03-04T23:45:24.073Z,11.37
2019-03-04T23:47:51.312Z,4.90
2019-03-04T23:50:20.840Z,4.13
2019-03-04T23:52:48.040Z,6.93
2019-03-04T23:55:15.362Z,8.73
2019-03-04T23:57:42.689Z,10.20
